Time;durP1;ratioP1;P1;durP2;ratioP2;P2;SDS_P1;SDS_P2;PMS_P1;PMS_P2;Temp;Humidity;BMP_temperature;BMP_pressure;BME280_temperature;BME280_humidity;BME280_pressure;Samples;Min_cycle;Max_cycle;Signal;HPM_P1;HPM_P2
2023/05/08 00:00:28;;;;;;;4.00;3.28;;;9.50;98.20;;;;;;4970496;28;20403;-67
2023/05/08 00:02:54;;;;;;;5.30;3.15;;;9.40;98.10;;;;;;4969187;28;20126;-67
2023/05/08 00:05:20;;;;;;;3.97;3.38;;;9.40;98.10;;;;;;4972557;28;20049;-67
2023/05/08 00:07:46;;;;;;;4.55;3.17;;;9.40;98.20;;;;;;4970726;28;20572;-67
2023/05/08 00:10:12;;;;;;;3.40;2.90;;;9.40;98.30;;;;;;4974327;28;20041;-67
2023/05/08 00:12:37;;;;;;;5.07;3.08;;;9.50;98.30;;;;;;4971833;28;20069;-67
2023/05/08 00:15:04;;;;;;;5.07;3.33;;;9.50;98.40;;;;;;4972421;28;20068;-67
2023/05/08 00:17:30;;;;;;;3.55;3.17;;;9.50;98.40;;;;;;4972063;28;20034;-67
2023/05/08 00:19:56;;;;;;;3.60;3.25;;;9.50;98.30;;;;;;4969626;28;20445;-68
2023/05/08 00:22:22;;;;;;;4.25;3.33;;;9.50;98.40;;;;;;4972179;28;20034;-67
2023/05/08 00:24:47;;;;;;;3.72;3.17;;;9.40;98.40;;;;;;4971649;28;20054;-67
2023/05/08 00:27:13;;;;;;;4.38;3.15;;;9.40;98.50;;;;;;4969271;28;20725;-67
2023/05/08 00:29:39;;;;;;;5.25;3.30;;;9.40;98.50;;;;;;4969100;28;20026;-67
2023/05/08 00:32:08;;;;;;;3.63;3.00;;;9.40;98.50;;;;;;4967972;28;20555;-67
2023/05/08 00:34:34;;;;;;;4.68;3.63;;;9.40;98.50;;;;;;4975526;28;20042;-67
2023/05/08 00:37:00;;;;;;;4.68;3.25;;;9.40;98.50;;;;;;4972871;28;20045;-67
2023/05/08 00:39:26;;;;;;;4.28;3.45;;;9.30;98.50;;;;;;4964933;28;20360;-67
2023/05/08 00:41:52;;;;;;;5.50;3.67;;;9.20;98.70;;;;;;4971470;28;20042;-67
2023/05/08 00:44:17;;;;;;;7.18;3.33;;;9.20;98.60;;;;;;4974054;28;20037;-67
2023/05/08 00:46:45;;;;;;;3.88;3.47;;;9.30;98.60;;;;;;4973074;28;20175;-67
2023/05/08 00:49:13;;;;;;;4.57;3.08;;;9.30;98.50;;;;;;4971362;28;20038;-66
2023/05/08 00:51:51;;;;;;;5.25;3.33;;;9.20;98.60;;;;;;4963638;28;20038;-67
2023/05/08 00:54:18;;;;;;;5.07;3.45;;;9.30;98.70;;;;;;4970567;28;20035;-67
2023/05/08 00:56:44;;;;;;;4.13;2.92;;;9.30;98.60;;;;;;4985953;28;20081;-67
2023/05/08 00:59:13;;;;;;;5.32;3.35;;;9.30;98.60;;;;;;4975993;28;20030;-67
2023/05/08 01:01:40;;;;;;;4.93;3.42;;;9.30;98.60;;;;;;4966283;28;20063;-67
2023/05/08 01:04:06;;;;;;;4.70;3.47;;;9.20;98.50;;;;;;4956721;28;20485;-66
2023/05/08 01:06:33;;;;;;;4.22;3.20;;;9.20;98.60;;;;;;4974831;28;20032;-68
2023/05/08 01:08:59;;;;;;;5.75;3.63;;;9.20;98.50;;;;;;4975679;28;20840;-67
2023/05/08 01:11:35;;;;;;;3.28;2.95;;;9.20;98.60;;;;;;4959366;28;20037;-67
2023/05/08 01:14:04;;;;;;;4.22;3.30;;;9.10;98.60;;;;;;4969392;28;20137;-67
2023/05/08 01:16:36;;;;;;;4.45;3.53;;;9.10;98.80;;;;;;4969326;28;20137;-67
2023/05/08 01:19:13;;;;;;;4.38;3.38;;;9.10;98.90;;;;;;4968241;28;20458;-67
2023/05/08 01:22:02;;;;;;;6.70;3.60;;;9.10;98.80;;;;;;4983858;28;20041;-67
2023/05/08 01:24:49;;;;;;;4.40;3.28;;;9.10;98.90;;;;;;4953003;28;20735;-67
2023/05/08 01:27:33;;;;;;;5.82;3.80;;;9.00;98.80;;;;;;4969290;28;20039;-67
2023/05/08 01:30:08;;;;;;;4.45;3.35;;;9.00;99.00;;;;;;4959826;28;20026;-67
2023/05/08 01:32:44;;;;;;;4.95;3.50;;;9.00;99.00;;;;;;4964557;28;20026;-67
2023/05/08 01:35:48;;;;;;;6.20;3.85;;;9.00;98.90;;;;;;4968655;28;20030;-67
2023/05/08 01:38:24;;;;;;;3.88;3.30;;;9.00;99.00;;;;;;4966054;28;20132;-67
2023/05/08 01:41:05;;;;;;;7.00;3.28;;;9.00;99.10;;;;;;4972029;28;20037;-67
2023/05/08 01:44:01;;;;;;;4.78;3.50;;;8.90;99.00;;;;;;4966257;28;20115;-67
2023/05/08 01:46:31;;;;;;;4.68;3.50;;;9.00;99.00;;;;;;4959254;28;20136;-67
2023/05/08 01:49:35;;;;;;;5.65;3.63;;;8.90;99.10;;;;;;4973201;28;20030;-67
2023/05/08 01:52:18;;;;;;;6.00;3.67;;;8.90;99.10;;;;;;4955288;28;20046;-67
2023/05/08 01:55:07;;;;;;;5.05;4.00;;;8.80;99.30;;;;;;4967652;28;20030;-67
2023/05/08 01:57:39;;;;;;;6.72;3.80;;;8.80;99.50;;;;;;4968764;28;20038;-67
2023/05/08 02:00:06;;;;;;;5.95;3.78;;;8.70;99.40;;;;;;4964484;28;20061;-67
2023/05/08 02:02:39;;;;;;;5.57;3.95;;;8.70;99.40;;;;;;4972893;28;20072;-67
2023/05/08 02:05:08;;;;;;;5.25;3.38;;;8.70;99.30;;;;;;4965355;28;20427;-67
2023/05/08 02:07:39;;;;;;;6.15;4.20;;;8.70;99.20;;;;;;4973363;28;20107;-67
2023/05/08 02:10:07;;;;;;;4.13;3.70;;;8.70;99.50;;;;;;4974386;28;20084;-67
2023/05/08 02:12:36;;;;;;;5.55;3.85;;;8.70;99.30;;;;;;4967428;28;20594;-67
2023/05/08 02:15:02;;;;;;;5.30;4.10;;;8.70;99.30;;;;;;4971082;28;20034;-67
2023/05/08 02:17:30;;;;;;;4.57;3.78;;;8.70;99.30;;;;;;4968982;28;20617;-67
2023/05/08 02:19:59;;;;;;;6.97;4.35;;;8.60;99.30;;;;;;4967464;28;20038;-67
2023/05/08 02:22:26;;;;;;;5.88;4.22;;;8.60;99.50;;;;;;4963760;28;20066;-67
2023/05/08 02:24:56;;;;;;;5.95;4.28;;;8.60;99.50;;;;;;4960049;28;20034;-67
2023/05/08 02:27:25;;;;;;;4.30;3.47;;;8.50;99.70;;;;;;4960840;28;20137;-67
2023/05/08 02:29:53;;;;;;;7.25;4.65;;;8.60;99.70;;;;;;4960929;28;20065;-67
2023/05/08 02:32:20;;;;;;;5.72;3.80;;;8.50;99.50;;;;;;4970216;28;20073;-67
2023/05/08 02:34:48;;;;;;;6.70;4.38;;;8.50;99.60;;;;;;4963716;28;20035;-67
2023/05/08 02:37:18;;;;;;;7.13;4.70;;;8.40;99.70;;;;;;4969029;28;20039;-67
2023/05/08 02:39:46;;;;;;;7.80;4.35;;;8.40;99.60;;;;;;4960435;28;20447;-67
2023/05/08 02:42:13;;;;;;;5.90;4.53;;;8.50;99.60;;;;;;4965536;28;20409;-67
2023/05/08 02:44:39;;;;;;;5.85;4.57;;;8.40;99.50;;;;;;4979761;28;20019;-68
2023/05/08 02:47:20;;;;;;;7.65;4.43;;;8.40;99.60;;;;;;4967959;28;20490;-67
2023/05/08 02:49:53;;;;;;;6.07;4.70;;;8.40;99.60;;;;;;4977078;28;20038;-67
2023/05/08 02:52:30;;;;;;;6.65;4.72;;;8.40;99.50;;;;;;4962977;28;20038;-67
2023/05/08 02:55:15;;;;;;;7.10;4.15;;;8.40;99.50;;;;;;4961689;28;20415;-67
2023/05/08 02:57:45;;;;;;;6.35;4.38;;;8.40;99.50;;;;;;4959766;28;20170;-67
2023/05/08 03:00:17;;;;;;;6.93;4.22;;;8.40;99.40;;;;;;4966289;28;20069;-67
2023/05/08 03:02:53;;;;;;;5.35;4.45;;;8.40;99.40;;;;;;4949032;28;20045;-67
2023/05/08 03:05:29;;;;;;;6.03;4.30;;;8.40;99.50;;;;;;4965460;28;20034;-67
2023/05/08 03:07:59;;;;;;;7.32;4.68;;;8.40;99.70;;;;;;4965174;28;20074;-67
2023/05/08 03:10:30;;;;;;;6.38;4.32;;;8.40;99.90;;;;;;4959414;28;20035;-67
2023/05/08 03:12:57;;;;;;;8.05;4.40;;;8.30;99.70;;;;;;4960866;28;20736;-67
2023/05/08 03:15:25;;;;;;;5.10;3.92;;;8.30;99.70;;;;;;4959640;28;20103;-67
2023/05/08 03:17:59;;;;;;;6.20;4.50;;;8.30;99.70;;;;;;4953119;28;20039;-67
2023/05/08 03:20:28;;;;;;;7.45;4.70;;;8.30;99.60;;;;;;4963890;28;20448;-67
2023/05/08 03:22:55;;;;;;;5.28;4.07;;;8.20;99.80;;;;;;4965884;28;20041;-66
2023/05/08 03:25:22;;;;;;;6.07;4.53;;;8.20;99.80;;;;;;4974285;28;20038;-66
2023/05/08 03:27:50;;;;;;;6.05;4.20;;;8.10;99.70;;;;;;4966375;28;20095;-67
2023/05/08 03:30:17;;;;;;;5.40;4.22;;;8.10;99.90;;;;;;4969954;28;20128;-67
2023/05/08 03:32:53;;;;;;;6.68;4.53;;;8.10;99.90;;;;;;4968574;28;20043;-66
2023/05/08 03:35:20;;;;;;;6.90;4.63;;;8.00;99.90;;;;;;4965545;28;20035;-67
2023/05/08 03:37:46;;;;;;;7.38;4.50;;;8.00;99.90;;;;;;4961665;28;20450;-67
2023/05/08 03:40:12;;;;;;;6.70;5.05;;;8.00;99.90;;;;;;4968542;28;20700;-67
2023/05/08 03:42:40;;;;;;;6.53;4.38;;;8.00;99.90;;;;;;4958433;28;20030;-67
2023/05/08 03:45:07;;;;;;;5.20;4.05;;;8.00;99.90;;;;;;4963076;28;20705;-66
2023/05/08 03:47:35;;;;;;;5.63;4.32;;;8.00;99.90;;;;;;4951929;28;20158;-67
2023/05/08 03:50:02;;;;;;;6.63;4.43;;;8.00;99.90;;;;;;4967395;28;20245;-66
2023/05/08 03:52:29;;;;;;;7.50;4.50;;;8.00;99.90;;;;;;4975721;28;20026;-67
2023/05/08 03:54:55;;;;;;;6.78;5.03;;;8.00;99.90;;;;;;4967881;28;20045;-67
2023/05/08 03:57:26;;;;;;;6.68;4.82;;;8.00;99.90;;;;;;4957374;28;20427;-67
2023/05/08 04:00:23;;;;;;;6.10;4.28;;;8.00;99.90;;;;;;4969876;28;20038;-66
2023/05/08 04:03:00;;;;;;;6.32;4.43;;;8.00;99.90;;;;;;4968916;28;20035;-67
2023/05/08 04:05:51;;;;;;;7.05;4.53;;;8.00;99.90;;;;;;4963228;28;20038;-67
2023/05/08 04:08:32;;;;;;;6.10;4.50;;;8.00;99.90;;;;;;4976435;28;20027;-67
2023/05/08 04:11:10;;;;;;;6.13;4.50;;;8.10;99.80;;;;;;4968955;28;20026;-66
2023/05/08 04:13:44;;;;;;;6.57;5.00;;;8.00;99.90;;;;;;4970582;28;20050;-67
2023/05/08 04:16:21;;;;;;;5.82;4.55;;;8.10;99.90;;;;;;4953560;28;20116;-67
2023/05/08 04:18:49;;;;;;;6.47;4.55;;;8.10;99.80;;;;;;4962887;28;20736;-67
2023/05/08 04:21:21;;;;;;;6.68;4.72;;;8.10;99.80;;;;;;4969473;28;20043;-67
2023/05/08 04:23:50;;;;;;;6.93;4.57;;;8.20;99.90;;;;;;4968469;28;20034;-67
2023/05/08 04:26:17;;;;;;;7.78;5.38;;;8.20;99.90;;;;;;4968678;28;20038;-67
2023/05/08 04:28:47;;;;;;;8.75;5.35;;;8.20;99.80;;;;;;4969262;28;20569;-67
2023/05/08 04:31:15;;;;;;;6.70;4.80;;;8.10;99.80;;;;;;4963769;28;20038;-67
2023/05/08 04:33:45;;;;;;;5.95;4.63;;;8.10;99.50;;;;;;4966569;28;20057;-67
2023/05/08 04:36:13;;;;;;;7.88;5.10;;;8.10;99.80;;;;;;4961708;28;20038;-67
2023/05/08 04:38:40;;;;;;;7.43;5.10;;;8.10;99.80;;;;;;4965668;28;20033;-67
2023/05/08 04:41:07;;;;;;;6.93;4.85;;;8.20;99.90;;;;;;4962547;28;20789;-66
2023/05/08 04:43:34;;;;;;;6.53;4.63;;;8.30;99.60;;;;;;4965060;28;20034;-67
2023/05/08 04:46:01;;;;;;;8.43;5.70;;;8.40;99.50;;;;;;4961765;28;20038;-67
2023/05/08 04:48:28;;;;;;;7.60;5.18;;;8.40;99.30;;;;;;4962887;28;20035;-67
2023/05/08 04:50:54;;;;;;;6.25;5.03;;;8.50;99.50;;;;;;4962773;28;20058;-66
2023/05/08 04:53:20;;;;;;;7.30;4.60;;;8.50;99.00;;;;;;4959083;28;20142;-67
2023/05/08 04:55:46;;;;;;;7.88;4.90;;;8.50;98.90;;;;;;4964926;28;20062;-66
2023/05/08 04:58:12;;;;;;;5.95;4.53;;;8.60;99.00;;;;;;4971481;28;20087;-67
2023/05/08 05:00:38;;;;;;;7.45;4.55;;;8.70;98.80;;;;;;4962048;28;20178;-66
2023/05/08 05:03:04;;;;;;;6.30;4.75;;;8.70;98.40;;;;;;4964637;28;20034;-66
2023/05/08 05:05:30;;;;;;;7.15;4.85;;;8.70;98.60;;;;;;4967258;28;20406;-67
2023/05/08 05:07:56;;;;;;;5.68;4.60;;;8.80;98.60;;;;;;4966199;28;20038;-67
2023/05/08 05:10:22;;;;;;;6.88;5.18;;;8.90;98.20;;;;;;4956613;28;20150;-67
2023/05/08 05:12:48;;;;;;;6.60;4.60;;;9.10;98.10;;;;;;4960326;28;20137;-67
2023/05/08 05:15:14;;;;;;;5.95;4.50;;;9.40;97.40;;;;;;4966332;28;20520;-67
2023/05/08 05:17:40;;;;;;;5.70;4.18;;;9.60;96.80;;;;;;4959171;28;20577;-67
2023/05/08 05:20:07;;;;;;;6.15;4.32;;;9.70;96.10;;;;;;4968405;28;20149;-66
2023/05/08 05:22:33;;;;;;;7.00;4.70;;;9.90;96.00;;;;;;4964451;28;20038;-66
2023/05/08 05:24:59;;;;;;;5.97;4.50;;;10.20;95.90;;;;;;4957864;28;20034;-67
2023/05/08 05:27:25;;;;;;;7.63;4.50;;;10.40;94.80;;;;;;4968157;28;20022;-67
2023/05/08 05:29:51;;;;;;;5.15;4.03;;;10.70;94.20;;;;;;4963138;28;20398;-67
2023/05/08 05:32:17;;;;;;;5.03;3.85;;;11.00;93.90;;;;;;4971219;28;20027;-67
2023/05/08 05:34:43;;;;;;;5.78;3.80;;;11.30;93.00;;;;;;4963864;28;20033;-67
2023/05/08 05:37:09;;;;;;;4.90;3.72;;;11.90;92.00;;;;;;4970598;28;20042;-67
2023/05/08 05:39:36;;;;;;;6.25;4.38;;;12.60;91.00;;;;;;4969248;28;20646;-67
2023/05/08 05:42:03;;;;;;;5.25;4.13;;;13.30;88.80;;;;;;4962001;28;20043;-67
2023/05/08 05:44:29;;;;;;;6.88;4.30;;;14.10;83.60;;;;;;4965180;28;20110;-67
2023/05/08 05:46:55;;;;;;;4.97;3.42;;;14.60;81.80;;;;;;4956369;28;20145;-67
2023/05/08 05:49:21;;;;;;;6.65;3.38;;;15.00;77.80;;;;;;4967510;28;20077;-67
2023/05/08 05:51:47;;;;;;;4.53;3.53;;;14.90;76.40;;;;;;4965901;28;20038;-67
2023/05/08 05:54:14;;;;;;;5.97;4.22;;;14.60;77.00;;;;;;4962676;28;20034;-67
2023/05/08 05:56:39;;;;;;;4.07;3.42;;;14.30;78.10;;;;;;4962940;28;20409;-67
2023/05/08 05:59:06;;;;;;;3.60;3.17;;;14.20;78.50;;;;;;4962118;28;20112;-67
2023/05/08 06:01:31;;;;;;;4.78;3.05;;;14.10;77.00;;;;;;4972661;28;20459;-67
2023/05/08 06:03:57;;;;;;;7.28;3.13;;;13.90;78.20;;;;;;4961747;28;20207;-67
2023/05/08 06:06:23;;;;;;;5.28;3.15;;;13.90;77.90;;;;;;4959369;28;20404;-66
2023/05/08 06:08:49;;;;;;;5.35;3.35;;;13.90;78.20;;;;;;4966428;28;20039;-67
2023/05/08 06:11:15;;;;;;;5.07;3.10;;;14.20;79.00;;;;;;4967710;28;20042;-68
2023/05/08 06:13:42;;;;;;;4.60;3.03;;;14.60;77.90;;;;;;4970943;28;20022;-68
2023/05/08 06:16:08;;;;;;;3.92;2.78;;;14.80;72.10;;;;;;4968410;28;20073;-67
2023/05/08 06:18:34;;;;;;;3.65;2.78;;;15.00;72.40;;;;;;4974743;28;20124;-67
2023/05/08 06:21:00;;;;;;;2.80;2.45;;;14.90;72.50;;;;;;4966423;28;20047;-67
2023/05/08 06:23:26;;;;;;;4.68;3.05;;;14.80;73.10;;;;;;4969413;28;20018;-68
2023/05/08 06:25:53;;;;;;;4.78;2.78;;;14.80;73.20;;;;;;4972679;28;20128;-67
2023/05/08 06:28:19;;;;;;;4.28;2.85;;;14.70;73.80;;;;;;4970331;28;20142;-68
2023/05/08 06:30:44;;;;;;;4.07;2.38;;;14.70;75.30;;;;;;4965048;28;20818;-68
2023/05/08 06:33:11;;;;;;;5.43;3.03;;;14.50;72.80;;;;;;4961122;28;20041;-67
2023/05/08 06:35:38;;;;;;;2.75;2.13;;;14.40;74.10;;;;;;4964150;28;20046;-67
2023/05/08 06:38:04;;;;;;;3.33;2.40;;;14.30;73.80;;;;;;4967103;28;20887;-67
2023/05/08 06:40:30;;;;;;;4.05;2.60;;;14.20;71.80;;;;;;4964639;28;20042;-67
2023/05/08 06:42:56;;;;;;;3.58;2.22;;;14.10;72.70;;;;;;4962813;28;20764;-67
2023/05/08 06:45:21;;;;;;;3.25;2.20;;;14.40;73.10;;;;;;4964570;28;20050;-67
2023/05/08 06:47:47;;;;;;;2.83;1.58;;;14.50;70.80;;;;;;4962143;28;20026;-68
2023/05/08 06:50:13;;;;;;;2.78;2.00;;;14.40;70.50;;;;;;4968498;28;20709;-67
2023/05/08 06:52:38;;;;;;;5.13;2.10;;;14.20;71.00;;;;;;4965070;28;20414;-67
2023/05/08 06:55:05;;;;;;;2.55;1.70;;;14.00;71.80;;;;;;4965806;28;20050;-67
2023/05/08 06:57:30;;;;;;;4.85;1.70;;;13.80;73.10;;;;;;4965666;28;20058;-67
2023/05/08 06:59:56;;;;;;;3.00;1.70;;;13.70;72.70;;;;;;4964920;28;20553;-68
2023/05/08 07:02:22;;;;;;;3.63;2.15;;;13.70;71.10;;;;;;4967885;28;20038;-67
2023/05/08 07:04:48;;;;;;;2.80;2.40;;;13.70;73.60;;;;;;4962218;28;20870;-67
2023/05/08 07:07:14;;;;;;;2.85;1.73;;;13.60;71.40;;;;;;4963030;28;20117;-67
2023/05/08 07:09:40;;;;;;;5.45;1.90;;;13.50;73.40;;;;;;4966605;28;20041;-67
2023/05/08 07:12:06;;;;;;;4.10;1.92;;;13.40;71.80;;;;;;4957155;28;20150;-67
2023/05/08 07:14:31;;;;;;;2.10;1.60;;;13.40;72.50;;;;;;4963572;28;20026;-67
2023/05/08 07:16:57;;;;;;;3.30;1.80;;;13.50;70.60;;;;;;4966804;28;20042;-68
2023/05/08 07:19:23;;;;;;;3.35;1.85;;;13.80;71.20;;;;;;4953463;28;20035;-68
2023/05/08 07:21:49;;;;;;;7.82;2.10;;;13.90;70.60;;;;;;4968241;28;20154;-67
2023/05/08 07:24:15;;;;;;;3.92;1.65;;;14.00;69.70;;;;;;4969349;28;20034;-67
2023/05/08 07:26:41;;;;;;;2.40;1.48;;;14.00;69.70;;;;;;4969820;28;20026;-67
2023/05/08 07:29:07;;;;;;;2.55;1.50;;;13.90;67.50;;;;;;4970521;28;20034;-68
2023/05/08 07:31:33;;;;;;;3.55;1.40;;;13.90;68.60;;;;;;4952988;28;20035;-68
2023/05/08 07:33:59;;;;;;;3.90;1.80;;;14.10;66.80;;;;;;4951156;28;20455;-67
2023/05/08 07:36:25;;;;;;;3.15;1.40;;;14.30;67.60;;;;;;4967473;28;20074;-68
2023/05/08 07:38:51;;;;;;;2.38;1.50;;;14.20;66.90;;;;;;4965296;28;20475;-68
2023/05/08 07:41:16;;;;;;;3.88;1.50;;;14.20;67.80;;;;;;4964675;28;20812;-67
2023/05/08 07:43:44;;;;;;;2.13;1.65;;;14.10;65.20;;;;;;4965288;28;21023;-68
2023/05/08 07:46:16;;;;;;;2.58;1.58;;;14.10;65.20;;;;;;4967164;28;20034;-68
2023/05/08 07:48:42;;;;;;;4.45;1.48;;;14.00;66.40;;;;;;4970959;28;20066;-67
2023/05/08 07:51:10;;;;;;;2.13;1.30;;;14.20;67.80;;;;;;4961147;28;20077;-68
2023/05/08 07:53:36;;;;;;;4.65;1.40;;;14.40;67.20;;;;;;4962349;28;20018;-68
2023/05/08 07:56:01;;;;;;;2.45;1.45;;;14.50;62.90;;;;;;4960008;28;20070;-67
2023/05/08 07:58:27;;;;;;;1.92;1.42;;;14.30;63.20;;;;;;4957822;28;20039;-67
2023/05/08 08:00:53;;;;;;;6.10;1.30;;;14.30;64.40;;;;;;4962549;28;20035;-68
2023/05/08 08:03:19;;;;;;;2.35;1.30;;;14.40;62.10;;;;;;4962260;28;20146;-68
2023/05/08 08:05:45;;;;;;;3.92;1.75;;;14.60;62.70;;;;;;4961838;28;20038;-66
2023/05/08 08:08:11;;;;;;;2.42;1.35;;;14.50;60.90;;;;;;4966736;28;20034;-67
2023/05/08 08:10:37;;;;;;;2.17;1.52;;;14.40;60.20;;;;;;4969256;28;20069;-67
2023/05/08 08:13:03;;;;;;;3.60;1.60;;;14.30;62.00;;;;;;4970855;28;20066;-67
2023/05/08 08:15:28;;;;;;;2.85;1.67;;;14.30;61.00;;;;;;4965046;28;20785;-67
2023/05/08 08:17:54;;;;;;;3.22;1.67;;;14.30;61.00;;;;;;4965899;28;20045;-67
2023/05/08 08:20:21;;;;;;;5.35;1.88;;;14.40;62.90;;;;;;4960469;28;20489;-67
2023/05/08 08:22:46;;;;;;;2.03;1.55;;;14.50;63.00;;;;;;4967483;28;20047;-69
2023/05/08 08:25:12;;;;;;;4.32;1.80;;;14.60;62.00;;;;;;4953683;28;20038;-67
2023/05/08 08:27:38;;;;;;;2.70;1.85;;;14.60;62.20;;;;;;4966613;28;20022;-67
2023/05/08 08:30:05;;;;;;;2.33;1.20;;;14.70;60.60;;;;;;4969091;28;20037;-68
2023/05/08 08:32:31;;;;;;;3.55;1.48;;;14.80;59.90;;;;;;4975215;28;20054;-67
2023/05/08 08:34:56;;;;;;;4.30;1.75;;;14.70;59.10;;;;;;4966915;28;20058;-67
2023/05/08 08:37:23;;;;;;;2.67;1.60;;;14.80;58.90;;;;;;4966181;28;20050;-67
2023/05/08 08:39:49;;;;;;;5.85;2.28;;;14.90;59.90;;;;;;4969113;28;20044;-67
2023/05/08 08:42:15;;;;;;;4.47;2.03;;;15.00;59.80;;;;;;4955264;28;20068;-67
2023/05/08 08:44:41;;;;;;;1.98;1.60;;;15.10;59.20;;;;;;4960198;28;20321;-67
2023/05/08 08:47:11;;;;;;;2.83;1.50;;;15.20;60.60;;;;;;4956883;28;20728;-67
2023/05/08 08:49:50;;;;;;;4.63;1.20;;;15.20;59.00;;;;;;4966226;28;20833;-67
2023/05/08 08:52:53;;;;;;;4.78;1.55;;;15.30;57.10;;;;;;4959973;28;20054;-67
2023/05/08 08:55:22;;;;;;;2.97;1.40;;;15.40;56.60;;;;;;4935619;28;20065;-69
2023/05/08 08:58:02;;;;;;;3.75;1.58;;;15.80;57.00;;;;;;4968936;28;20808;-69
2023/05/08 09:00:31;;;;;;;2.22;1.50;;;16.20;56.30;;;;;;4962194;28;20117;-67
2023/05/08 09:02:57;;;;;;;3.03;1.73;;;16.50;53.70;;;;;;4976801;28;20082;-67
2023/05/08 09:05:25;;;;;;;2.28;1.42;;;16.60;56.10;;;;;;4967544;28;20085;-67
2023/05/08 09:07:53;;;;;;;3.10;1.50;;;16.60;56.90;;;;;;4970181;28;20057;-68
2023/05/08 09:10:20;;;;;;;2.55;1.40;;;16.80;54.50;;;;;;4970435;28;20086;-68
2023/05/08 09:12:47;;;;;;;3.22;1.30;;;17.20;53.60;;;;;;4962444;28;20117;-68
2023/05/08 09:15:13;;;;;;;2.13;1.30;;;17.30;52.70;;;;;;4973222;28;20057;-67
2023/05/08 09:17:38;;;;;;;1.63;1.38;;;17.40;53.60;;;;;;4971618;28;20226;-67
2023/05/08 09:20:05;;;;;;;3.35;1.35;;;17.50;54.00;;;;;;4963558;28;20034;-67
2023/05/08 09:22:34;;;;;;;5.10;1.55;;;17.50;52.90;;;;;;4967802;28;20033;-67
2023/05/08 09:25:02;;;;;;;3.53;1.80;;;17.70;53.20;;;;;;4966540;28;20423;-67
2023/05/08 09:27:29;;;;;;;4.63;1.45;;;17.70;53.50;;;;;;4969666;28;20494;-67
2023/05/08 09:30:03;;;;;;;2.30;1.45;;;17.70;51.50;;;;;;4961421;28;20113;-68
2023/05/08 09:32:30;;;;;;;3.03;1.40;;;18.00;51.20;;;;;;4965298;28;20045;-65
2023/05/08 09:34:56;;;;;;;2.90;1.50;;;18.20;49.70;;;;;;4962878;28;20031;-67
2023/05/08 09:37:22;;;;;;;4.47;1.60;;;18.50;49.60;;;;;;4967643;28;20038;-67
2023/05/08 09:39:48;;;;;;;2.50;1.70;;;18.90;48.60;;;;;;4961331;28;20593;-67
2023/05/08 09:42:14;;;;;;;2.08;1.42;;;19.40;47.70;;;;;;4955016;28;20031;-66
2023/05/08 09:44:44;;;;;;;1.80;1.60;;;19.50;47.90;;;;;;4958006;28;20029;-67
2023/05/08 09:47:19;;;;;;;3.03;1.40;;;19.60;46.30;;;;;;4962004;28;20109;-67
2023/05/08 09:49:59;;;;;;;4.55;1.50;;;19.50;47.20;;;;;;4961912;28;20030;-66
2023/05/08 09:52:25;;;;;;;2.92;1.20;;;19.20;45.90;;;;;;4960612;28;20121;-67
2023/05/08 09:55:04;;;;;;;1.77;1.50;;;18.90;47.20;;;;;;4963917;28;20035;-67
2023/05/08 09:57:32;;;;;;;4.47;1.40;;;18.70;46.60;;;;;;4961433;28;20026;-67
2023/05/08 10:00:11;;;;;;;2.75;1.30;;;18.40;45.80;;;;;;4971354;28;20061;-66
2023/05/08 10:02:52;;;;;;;3.72;1.33;;;18.40;45.70;;;;;;4967504;28;20030;-66
2023/05/08 10:05:29;;;;;;;1.88;1.50;;;18.40;44.30;;;;;;4955768;28;20034;-67
2023/05/08 10:08:15;;;;;;;1.85;1.30;;;18.80;45.90;;;;;;4953680;28;20035;-67
2023/05/08 10:10:41;;;;;;;2.00;1.42;;;19.40;45.60;;;;;;4959325;28;20038;-67
2023/05/08 10:13:07;;;;;;;1.90;1.48;;;19.30;43.70;;;;;;4957681;28;20141;-66
2023/05/08 10:15:36;;;;;;;5.82;1.40;;;19.10;44.00;;;;;;4967573;28;20053;-68
2023/05/08 10:18:06;;;;;;;7.25;1.60;;;19.00;46.10;;;;;;4980164;28;20042;-67
2023/05/08 10:20:38;;;;;;;3.53;1.30;;;19.00;44.90;;;;;;4961464;28;20134;-64
2023/05/08 10:23:10;;;;;;;4.03;1.50;;;19.00;46.70;;;;;;4970484;28;20662;-67
2023/05/08 10:25:54;;;;;;;2.92;1.30;;;18.80;44.70;;;;;;4964185;28;20031;-67
2023/05/08 10:28:48;;;;;;;5.97;1.30;;;18.70;46.60;;;;;;4974093;28;20026;-67
2023/05/08 10:31:16;;;;;;;2.28;1.52;;;18.70;45.10;;;;;;4974156;28;20088;-66
2023/05/08 10:33:45;;;;;;;4.47;1.80;;;18.90;48.10;;;;;;4968535;28;20107;-67
2023/05/08 10:36:12;;;;;;;1.67;1.30;;;19.10;45.90;;;;;;4971882;28;20035;-66
2023/05/08 10:38:40;;;;;;;2.85;1.33;;;19.50;44.00;;;;;;4967063;28;20034;-67
2023/05/08 10:41:06;;;;;;;2.58;1.20;;;19.90;45.40;;;;;;4966966;28;20089;-67
2023/05/08 10:43:32;;;;;;;1.45;1.25;;;20.00;44.40;;;;;;4962791;28;20039;-67
2023/05/08 10:46:20;;;;;;;2.20;1.15;;;20.00;45.10;;;;;;4954818;28;20146;-67
2023/05/08 10:49:19;;;;;;;3.85;1.60;;;20.00;44.00;;;;;;4956229;28;20149;-67
2023/05/08 10:52:09;;;;;;;2.63;1.20;;;19.90;43.80;;;;;;4952839;28;20071;-67
2023/05/08 10:54:50;;;;;;;2.55;1.40;;;19.90;43.60;;;;;;4975558;28;20035;-68
2023/05/08 10:57:16;;;;;;;3.47;1.40;;;19.90;43.10;;;;;;4966118;28;20625;-67
2023/05/08 10:59:45;;;;;;;2.90;1.48;;;19.70;42.70;;;;;;4969104;28;20030;-67
2023/05/08 11:02:12;;;;;;;1.95;1.33;;;19.70;43.20;;;;;;4970924;28;20042;-67
2023/05/08 11:04:38;;;;;;;4.20;1.63;;;19.70;44.60;;;;;;4960962;28;20030;-67
2023/05/08 11:07:04;;;;;;;4.00;1.60;;;19.40;44.10;;;;;;4965078;28;20042;-67
2023/05/08 11:09:45;;;;;;;2.88;1.50;;;19.10;42.90;;;;;;4968508;28;20061;-67
2023/05/08 11:12:25;;;;;;;1.42;1.25;;;18.80;45.30;;;;;;4968875;28;20129;-66
2023/05/08 11:15:04;;;;;;;2.78;1.25;;;18.50;44.90;;;;;;4958225;28;20165;-66
2023/05/08 11:17:31;;;;;;;2.00;1.40;;;18.40;47.20;;;;;;4968677;28;20031;-67
2023/05/08 11:20:03;;;;;;;3.58;1.10;;;18.50;45.00;;;;;;4972711;28;20069;-67
2023/05/08 11:22:33;;;;;;;2.40;1.30;;;18.30;43.90;;;;;;4970243;28;20054;-66
2023/05/08 11:25:02;;;;;;;2.20;1.35;;;18.10;44.50;;;;;;4968757;28;20034;-66
2023/05/08 11:27:32;;;;;;;5.68;1.50;;;18.10;46.70;;;;;;4969893;28;20135;-65
2023/05/08 11:30:17;;;;;;;11.77;1.50;;;18.20;46.30;;;;;;4968057;28;20086;-67
2023/05/08 11:33:13;;;;;;;2.87;1.30;;;18.20;45.90;;;;;;4965885;28;20045;-66
2023/05/08 11:35:53;;;;;;;5.22;1.50;;;18.30;46.40;;;;;;4965048;28;20989;-67
2023/05/08 11:38:28;;;;;;;1.73;1.17;;;18.50;46.60;;;;;;4969888;28;20057;-66
2023/05/08 11:41:08;;;;;;;3.07;1.10;;;18.50;47.30;;;;;;4968650;28;20494;-66
2023/05/08 11:43:36;;;;;;;2.65;0.93;;;18.50;45.30;;;;;;4967680;28;20034;-66
2023/05/08 11:46:07;;;;;;;2.03;1.30;;;18.40;44.10;;;;;;4967833;28;20149;-67
2023/05/08 11:48:34;;;;;;;1.67;1.25;;;18.40;44.50;;;;;;4967061;28;20033;-66
2023/05/08 11:51:01;;;;;;;3.28;1.30;;;18.30;45.70;;;;;;4971091;28;20117;-67
2023/05/08 11:53:29;;;;;;;2.97;1.23;;;18.20;43.90;;;;;;4970389;28;20055;-67
2023/05/08 11:55:55;;;;;;;1.58;1.23;;;18.10;44.50;;;;;;4969666;28;20490;-66
2023/05/08 11:58:20;;;;;;;3.20;1.75;;;18.30;46.20;;;;;;4965940;28;20142;-66
2023/05/08 12:00:47;;;;;;;2.17;1.27;;;18.20;45.40;;;;;;4973248;28;20073;-67
2023/05/08 12:03:21;;;;;;;1.42;1.25;;;18.20;45.60;;;;;;4970331;28;20097;-66
2023/05/08 12:05:48;;;;;;;2.17;1.23;;;18.30;47.20;;;;;;4968263;28;20046;-66
2023/05/08 12:08:16;;;;;;;2.55;1.42;;;18.40;47.10;;;;;;4964084;28;20041;-67
2023/05/08 12:10:53;;;;;;;3.80;1.50;;;18.40;45.10;;;;;;4971613;28;20061;-67
2023/05/08 12:13:20;;;;;;;3.08;1.20;;;18.30;43.10;;;;;;4974293;28;20104;-67
2023/05/08 12:15:49;;;;;;;6.93;1.50;;;18.30;46.00;;;;;;4969279;28;20064;-67
2023/05/08 12:18:16;;;;;;;5.45;1.23;;;18.30;44.60;;;;;;4962716;28;20046;-67
2023/05/08 12:20:42;;;;;;;2.42;1.40;;;18.30;45.70;;;;;;4969755;28;20035;-67
2023/05/08 12:23:09;;;;;;;1.40;1.23;;;18.30;45.70;;;;;;4967112;28;20038;-66
2023/05/08 12:25:39;;;;;;;2.55;1.27;;;18.50;46.30;;;;;;4963322;28;20419;-67
2023/05/08 12:28:11;;;;;;;2.65;1.42;;;18.50;44.20;;;;;;4965570;28;20027;-67
2023/05/08 12:30:37;;;;;;;3.35;1.25;;;18.50;44.20;;;;;;4967410;28;20118;-67
2023/05/08 12:33:03;;;;;;;2.03;1.50;;;18.50;44.20;;;;;;4970444;28;20092;-67
2023/05/08 12:35:30;;;;;;;3.00;1.35;;;18.50;43.90;;;;;;4970387;28;20041;-67
2023/05/08 12:38:01;;;;;;;4.95;1.45;;;18.60;45.10;;;;;;4975097;28;20035;-67
2023/05/08 12:40:33;;;;;;;1.35;1.15;;;18.70;46.60;;;;;;4971277;28;20498;-68
2023/05/08 12:43:02;;;;;;;1.13;1.00;;;18.60;43.30;;;;;;4970991;28;20037;-67
2023/05/08 12:45:39;;;;;;;2.60;1.00;;;18.70;46.00;;;;;;4975778;28;20038;-67
2023/05/08 12:48:10;;;;;;;2.83;1.20;;;18.70;44.70;;;;;;4969442;28;20057;-67
2023/05/08 12:50:41;;;;;;;1.52;1.13;;;18.70;44.30;;;;;;4974218;28;20027;-67
2023/05/08 12:53:11;;;;;;;2.75;1.20;;;18.80;44.40;;;;;;4974212;28;20921;-67
2023/05/08 12:55:39;;;;;;;1.63;1.20;;;18.80;45.10;;;;;;4977264;28;20034;-67
2023/05/08 12:58:06;;;;;;;1.85;1.27;;;18.70;45.60;;;;;;4968130;28;20034;-67
2023/05/08 13:00:36;;;;;;;4.53;1.80;;;18.60;45.50;;;;;;4973338;28;20065;-67
2023/05/08 13:03:02;;;;;;;4.07;1.38;;;18.70;45.00;;;;;;4963692;28;20053;-67